createdAt,value
2018-09-18T00:00:21.848Z,86.00
2018-09-18T00:02:51.062Z,85.30
2018-09-18T00:05:20.289Z,85.90
2018-09-18T00:07:49.469Z,86.10
2018-09-18T00:10:18.609Z,86.00
2018-09-18T00:12:47.837Z,85.80
2018-09-18T00:15:17.221Z,85.40
2018-09-18T00:17:46.410Z,85.50
2018-09-18T00:20:15.611Z,85.90
2018-09-18T00:22:44.817Z,86.00
2018-09-18T00:25:13.969Z,86.40
2018-09-18T00:27:43.125Z,86.20
2018-09-18T00:30:12.295Z,86.30
2018-09-18T00:32:41.649Z,86.80
2018-09-18T00:35:11.186Z,86.90
2018-09-18T00:37:40.365Z,86.50
2018-09-18T00:40:09.569Z,86.00
2018-09-18T00:42:38.760Z,86.20
2018-09-18T00:45:08.085Z,86.50
2018-09-18T00:47:37.264Z,86.80
2018-09-18T00:50:06.617Z,86.50
2018-09-18T00:52:35.794Z,86.50
2018-09-18T00:55:04.958Z,86.20
2018-09-18T00:57:34.507Z,86.60
2018-09-18T01:00:04.315Z,86.50
2018-09-18T01:02:33.941Z,86.50
2018-09-18T01:05:03.116Z,86.50
2018-09-18T01:07:32.301Z,86.50
2018-09-18T01:10:01.482Z,87.10
2018-09-18T01:12:30.645Z,86.10
2018-09-18T01:14:59.814Z,86.80
2018-09-18T01:17:29.167Z,86.50
2018-09-18T01:19:58.354Z,86.40
2018-09-18T01:22:28.114Z,86.50
2018-09-18T01:24:57.264Z,86.50
2018-09-18T01:27:26.421Z,86.90
2018-09-18T01:29:55.700Z,87.30
2018-09-18T01:32:24.896Z,87.20
2018-09-18T01:34:54.272Z,87.50
2018-09-18T01:37:23.437Z,86.50
2018-09-18T01:39:52.708Z,87.20
2018-09-18T01:42:21.882Z,87.20
2018-09-18T01:44:51.049Z,87.40
2018-09-18T01:47:20.230Z,87.40
2018-09-18T01:49:49.465Z,87.40
2018-09-18T01:52:18.618Z,87.40
2018-09-18T01:54:48.039Z,87.30
2018-09-18T01:57:17.237Z,87.30
2018-09-18T01:59:46.453Z,87.70
2018-09-18T02:02:15.658Z,88.10
2018-09-18T02:04:44.973Z,88.30
2018-09-18T02:07:14.139Z,88.30
2018-09-18T02:09:43.418Z,88.30
2018-09-18T02:12:12.689Z,88.10
2018-09-18T02:14:41.958Z,88.20
2018-09-18T02:17:11.073Z,87.80
2018-09-18T02:19:40.300Z,88.50
2018-09-18T02:22:09.589Z,88.60
2018-09-18T02:24:38.785Z,88.70
2018-09-18T02:27:08.018Z,88.80
2018-09-18T02:29:37.210Z,88.90
2018-09-18T02:32:06.517Z,88.90
2018-09-18T02:34:35.816Z,88.70
2018-09-18T02:37:04.977Z,88.90
2018-09-18T02:39:34.590Z,88.90
2018-09-18T02:42:03.816Z,88.90
2018-09-18T02:44:32.991Z,89.20
2018-09-18T02:47:02.170Z,89.20
2018-09-18T02:49:31.338Z,89.40
2018-09-18T02:52:00.530Z,89.30
2018-09-18T02:54:29.668Z,89.50
2018-09-18T02:56:59.276Z,89.20
2018-09-18T02:59:28.436Z,89.50
2018-09-18T03:01:57.585Z,89.20
2018-09-18T03:04:26.799Z,89.40
2018-09-18T03:06:56.025Z,88.80
2018-09-18T03:09:25.303Z,89.30
2018-09-18T03:11:54.500Z,89.50
2018-09-18T03:14:23.744Z,89.40
2018-09-18T03:16:52.909Z,89.50
2018-09-18T03:19:22.209Z,89.40
2018-09-18T03:21:51.369Z,89.30
2018-09-18T03:24:20.529Z,89.50
2018-09-18T03:26:49.777Z,89.70
2018-09-18T03:29:18.999Z,89.00
2018-09-18T03:31:48.158Z,89.10
2018-09-18T03:34:17.329Z,89.40
2018-09-18T03:36:46.608Z,89.50
2018-09-18T03:39:15.788Z,88.80
2018-09-18T03:41:44.963Z,89.20
2018-09-18T03:44:14.125Z,88.90
2018-09-18T03:46:43.305Z,89.20
2018-09-18T03:49:12.485Z,89.60
2018-09-18T03:51:41.708Z,89.20
2018-09-18T03:54:11.225Z,89.30
2018-09-18T03:56:40.417Z,89.60
2018-09-18T03:59:09.565Z,89.60
2018-09-18T04:01:38.762Z,89.60
2018-09-18T04:04:07.913Z,89.30
2018-09-18T04:06:37.079Z,89.30
2018-09-18T04:09:09.179Z,89.50
2018-09-18T04:11:38.393Z,89.60
2018-09-18T04:14:07.673Z,89.50
2018-09-18T04:16:36.890Z,89.40
2018-09-18T04:19:06.231Z,89.90
2018-09-18T04:21:40.401Z,90.00
2018-09-18T04:24:09.577Z,90.20
2018-09-18T04:26:40.094Z,90.10
2018-09-18T04:29:09.920Z,90.30
2018-09-18T04:31:40.584Z,90.20
2018-09-18T04:34:09.881Z,90.30
2018-09-18T04:36:39.036Z,90.30
2018-09-18T04:39:11.620Z,90.30
2018-09-18T04:41:41.040Z,90.50
2018-09-18T04:44:10.950Z,90.30
2018-09-18T04:46:40.154Z,90.40
2018-09-18T04:49:09.349Z,90.30
2018-09-18T04:51:38.532Z,90.40
2018-09-18T04:54:07.732Z,90.40
2018-09-18T04:56:36.938Z,90.40
2018-09-18T04:59:06.193Z,90.40
2018-09-18T05:01:35.717Z,90.50
2018-09-18T05:04:04.945Z,90.40
2018-09-18T05:06:34.149Z,90.40
2018-09-18T05:09:03.450Z,90.20
2018-09-18T05:11:32.693Z,90.00
2018-09-18T05:14:01.935Z,89.60
2018-09-18T05:16:31.071Z,89.50
2018-09-18T05:19:00.215Z,89.60
2018-09-18T05:21:29.360Z,89.10
2018-09-18T05:23:58.514Z,89.20
2018-09-18T05:26:27.669Z,88.90
2018-09-18T05:28:56.821Z,88.70
2018-09-18T05:31:25.984Z,88.60
2018-09-18T05:33:55.141Z,88.30
2018-09-18T05:36:24.285Z,88.30
2018-09-18T05:38:53.434Z,88.20
2018-09-18T05:41:22.568Z,88.10
2018-09-18T05:43:51.736Z,88.20
2018-09-18T05:46:20.888Z,88.80
2018-09-18T05:48:50.393Z,88.30
2018-09-18T05:51:19.668Z,88.00
2018-09-18T05:53:48.853Z,87.70
2018-09-18T05:56:17.994Z,87.40
2018-09-18T05:58:47.201Z,88.10
2018-09-18T06:01:16.369Z,87.70
2018-09-18T06:03:45.780Z,87.70
2018-09-18T06:06:14.956Z,88.20
2018-09-18T06:08:44.211Z,87.60
2018-09-18T06:11:13.461Z,87.10
2018-09-18T06:13:42.617Z,87.30
2018-09-18T06:16:11.805Z,88.00
2018-09-18T06:18:41.041Z,86.90
2018-09-18T06:21:10.286Z,87.00
2018-09-18T06:23:39.452Z,87.10
2018-09-18T06:26:08.763Z,87.30
2018-09-18T06:28:37.869Z,87.40
2018-09-18T06:31:07.042Z,87.70
2018-09-18T06:33:36.189Z,88.00
2018-09-18T06:36:05.325Z,87.90
2018-09-18T06:38:34.477Z,87.90
2018-09-18T06:41:03.641Z,88.10
2018-09-18T06:43:32.817Z,87.70
2018-09-18T06:46:02.018Z,87.40
2018-09-18T06:48:31.453Z,87.80
2018-09-18T06:51:00.601Z,87.30
2018-09-18T06:53:29.733Z,87.60
2018-09-18T06:55:58.888Z,87.60
2018-09-18T06:58:28.043Z,87.70
2018-09-18T07:00:57.221Z,87.40
2018-09-18T07:03:26.375Z,87.30
2018-09-18T07:05:55.531Z,86.80
2018-09-18T07:08:24.670Z,86.60
2018-09-18T07:10:53.817Z,86.70
2018-09-18T07:13:23.010Z,86.40
2018-09-18T07:15:52.160Z,86.00
2018-09-18T07:18:21.297Z,85.70
2018-09-18T07:20:50.793Z,84.90
2018-09-18T07:23:19.925Z,84.70
2018-09-18T07:25:49.097Z,83.70
2018-09-18T07:28:18.286Z,82.70
2018-09-18T07:30:47.501Z,82.10
2018-09-18T07:33:16.629Z,82.70
2018-09-18T07:35:45.776Z,80.10
2018-09-18T07:38:14.919Z,79.40
2018-09-18T07:40:44.069Z,77.80
2018-09-18T07:43:13.245Z,78.90
2018-09-18T07:45:42.393Z,80.10
2018-09-18T07:48:11.573Z,75.50
2018-09-18T07:50:40.753Z,76.50
2018-09-18T07:53:09.853Z,74.40
2018-09-18T07:55:39.000Z,72.10
2018-09-18T07:58:08.153Z,71.70
2018-09-18T08:00:37.320Z,69.80
2018-09-18T08:03:06.506Z,71.60
2018-09-18T08:05:35.821Z,70.10
2018-09-18T08:08:04.960Z,70.30
2018-09-18T08:10:34.149Z,68.40
2018-09-18T08:13:03.301Z,67.40
2018-09-18T08:15:32.440Z,66.90
2018-09-18T08:18:01.619Z,66.00
2018-09-18T08:20:30.778Z,67.10
2018-09-18T08:23:00.017Z,66.50
2018-09-18T08:25:29.394Z,65.90
2018-09-18T08:27:58.441Z,65.40
2018-09-18T08:30:27.582Z,65.10
2018-09-18T08:32:56.909Z,64.20
2018-09-18T08:35:25.907Z,62.70
2018-09-18T08:37:55.122Z,60.00
2018-09-18T08:40:24.245Z,62.60
2018-09-18T08:42:53.456Z,58.80
2018-09-18T08:45:22.613Z,59.60
2018-09-18T08:47:51.790Z,61.20
2018-09-18T08:50:20.937Z,59.40
2018-09-18T08:52:50.099Z,57.80
2018-09-18T08:55:19.239Z,59.10
2018-09-18T08:57:48.398Z,59.20
2018-09-18T09:00:17.526Z,61.50
2018-09-18T09:02:46.900Z,56.10
2018-09-18T09:05:16.130Z,57.50
2018-09-18T09:07:45.663Z,56.50
2018-09-18T09:10:14.726Z,55.60
2018-09-18T09:12:44.318Z,57.00
2018-09-18T09:15:13.442Z,55.40
2018-09-18T09:17:42.594Z,57.80
2018-09-18T09:20:11.779Z,56.50
2018-09-18T09:22:40.927Z,55.50
2018-09-18T09:25:10.073Z,55.60
2018-09-18T09:27:39.763Z,56.90
2018-09-18T09:30:08.938Z,53.10
2018-09-18T09:32:38.058Z,52.90
2018-09-18T09:35:07.275Z,52.20
2018-09-18T09:37:36.421Z,52.80
2018-09-18T09:40:06.707Z,53.30
2018-09-18T09:42:35.898Z,53.00
2018-09-18T09:45:05.083Z,52.80
2018-09-18T09:47:34.161Z,52.30
2018-09-18T09:50:03.289Z,51.50
2018-09-18T09:52:32.455Z,52.50
2018-09-18T09:55:01.597Z,51.60
2018-09-18T09:57:30.909Z,51.20
2018-09-18T10:00:00.037Z,52.50
2018-09-18T10:02:30.315Z,52.60
2018-09-18T10:04:59.792Z,52.90
2018-09-18T10:07:29.031Z,53.10
2018-09-18T10:09:58.171Z,54.60
2018-09-18T10:12:27.351Z,53.30
2018-09-18T10:14:56.490Z,52.40
2018-09-18T10:17:25.685Z,51.50
2018-09-18T10:19:54.834Z,51.70
2018-09-18T10:22:23.997Z,53.30
2018-09-18T10:24:53.210Z,51.20
2018-09-18T10:27:22.316Z,52.50
2018-09-18T10:29:51.475Z,51.70
2018-09-18T10:32:20.638Z,50.60
2018-09-18T10:34:49.818Z,52.40
2018-09-18T10:37:18.969Z,50.90
2018-09-18T10:39:48.222Z,51.30
2018-09-18T10:42:17.356Z,51.60
2018-09-18T10:44:46.503Z,51.70
2018-09-18T10:47:15.718Z,51.00
2018-09-18T10:49:44.851Z,51.50
2018-09-18T10:52:14.017Z,51.70
2018-09-18T10:54:43.153Z,52.10
2018-09-18T10:57:12.330Z,52.80
2018-09-18T10:59:41.617Z,54.80
2018-09-18T11:02:10.913Z,52.00
2018-09-18T11:04:39.999Z,51.40
2018-09-18T11:07:09.262Z,52.20
2018-09-18T11:09:38.320Z,52.40
2018-09-18T11:12:07.473Z,53.00
2018-09-18T11:14:36.672Z,53.20
2018-09-18T11:17:05.885Z,51.90
2018-09-18T11:19:35.118Z,52.10
2018-09-18T11:22:04.301Z,50.80
2018-09-18T11:24:33.444Z,50.80
2018-09-18T11:27:02.654Z,50.70
2018-09-18T11:29:31.953Z,52.00
2018-09-18T11:32:01.105Z,52.20
2018-09-18T11:34:30.333Z,52.10
2018-09-18T11:36:59.846Z,50.50
2018-09-18T11:39:30.929Z,51.30
2018-09-18T11:42:00.294Z,49.90
2018-09-18T11:44:29.562Z,47.40
2018-09-18T11:46:58.979Z,47.00
2018-09-18T11:49:28.215Z,50.60
2018-09-18T11:51:57.478Z,47.00
2018-09-18T11:54:27.292Z,47.70
2018-09-18T11:56:56.448Z,50.70
2018-09-18T11:59:25.731Z,50.80
2018-09-18T12:01:55.724Z,51.20
2018-09-18T12:04:24.991Z,48.70
2018-09-18T12:06:54.353Z,49.50
2018-09-18T12:09:23.524Z,48.90
2018-09-18T12:11:52.785Z,49.30
2018-09-18T12:14:22.050Z,48.50
2018-09-18T12:16:51.339Z,50.30
2018-09-18T12:19:20.445Z,51.70
2018-09-18T12:21:50.128Z,50.10
2018-09-18T12:24:19.267Z,50.30
2018-09-18T12:26:48.521Z,47.30
2018-09-18T12:29:17.913Z,48.60
2018-09-18T12:31:47.315Z,48.70
2018-09-18T12:34:16.556Z,50.30
2018-09-18T12:36:46.146Z,48.20
2018-09-18T12:39:15.437Z,49.80
2018-09-18T12:41:44.960Z,47.70
2018-09-18T12:44:14.149Z,49.20
2018-09-18T12:46:43.327Z,50.30
2018-09-18T12:49:12.591Z,49.00
2018-09-18T12:51:42.248Z,50.40
2018-09-18T12:54:12.081Z,51.90
2018-09-18T12:56:41.213Z,48.40
2018-09-18T12:59:10.371Z,48.60
2018-09-18T13:01:39.789Z,50.10
2018-09-18T13:04:09.268Z,49.50
2018-09-18T13:06:38.524Z,49.60
2018-09-18T13:09:10.541Z,49.80
2018-09-18T13:11:39.755Z,49.20
2018-09-18T13:14:09.245Z,48.40
2018-09-18T13:16:38.407Z,50.30
2018-09-18T13:19:07.724Z,48.10
2018-09-18T13:21:36.889Z,51.30
2018-09-18T13:24:06.182Z,47.60
2018-09-18T13:26:35.367Z,49.00
2018-09-18T13:29:04.553Z,49.10
2018-09-18T13:31:33.730Z,48.70
2018-09-18T13:34:02.892Z,49.30
2018-09-18T13:36:32.199Z,49.00
2018-09-18T13:39:01.362Z,49.10
2018-09-18T13:41:30.585Z,51.10
2018-09-18T13:43:59.729Z,47.80
2018-09-18T13:46:29.034Z,48.40
2018-09-18T13:48:58.132Z,49.70
2018-09-18T13:51:27.362Z,48.30
2018-09-18T13:53:56.513Z,48.40
2018-09-18T13:56:25.851Z,49.20
2018-09-18T13:58:54.951Z,48.00
2018-09-18T14:01:24.158Z,47.90
2018-09-18T14:03:53.279Z,51.00
2018-09-18T14:06:22.526Z,48.90
2018-09-18T14:08:51.699Z,48.30
2018-09-18T14:11:20.906Z,47.80
2018-09-18T14:13:50.171Z,48.60
2018-09-18T14:16:19.354Z,48.40
2018-09-18T14:18:48.639Z,45.50
2018-09-18T14:21:17.933Z,48.20
2018-09-18T14:23:47.116Z,47.60
2018-09-18T14:26:16.370Z,50.50
2018-09-18T14:28:45.493Z,49.90
2018-09-18T14:31:14.671Z,47.00
2018-09-18T14:33:43.860Z,47.40
2018-09-18T14:36:13.068Z,47.60
2018-09-18T14:38:42.234Z,49.50
2018-09-18T14:41:11.448Z,52.00
2018-09-18T14:43:40.660Z,51.30
2018-09-18T14:46:09.811Z,52.90
2018-09-18T14:48:39.019Z,53.00
2018-09-18T14:51:08.262Z,54.80
2018-09-18T14:53:37.399Z,53.60
2018-09-18T14:56:06.745Z,53.80
2018-09-18T14:58:35.967Z,54.00
2018-09-18T15:01:05.150Z,53.50
2018-09-18T15:03:34.357Z,54.40
2018-09-18T15:06:03.593Z,54.80
2018-09-18T15:08:32.990Z,53.80
2018-09-18T15:11:02.224Z,54.30
2018-09-18T15:13:31.466Z,55.30
2018-09-18T15:16:00.667Z,56.40
2018-09-18T15:18:29.938Z,56.50
2018-09-18T15:20:59.319Z,58.30
2018-09-18T15:23:28.521Z,57.80
2018-09-18T15:25:57.779Z,58.00
2018-09-18T15:28:26.990Z,58.70
2018-09-18T15:30:56.180Z,58.90
2018-09-18T15:33:25.485Z,59.40
2018-09-18T15:35:54.720Z,60.00
2018-09-18T15:38:23.976Z,59.80
2018-09-18T15:40:53.196Z,59.80
2018-09-18T15:43:22.693Z,61.70
2018-09-18T15:45:51.941Z,61.40
2018-09-18T15:48:21.102Z,60.20
2018-09-18T15:50:50.662Z,60.90
2018-09-18T15:53:19.865Z,58.20
2018-09-18T15:55:49.107Z,60.90
2018-09-18T15:58:18.288Z,60.00
2018-09-18T16:00:47.538Z,60.20
2018-09-18T16:03:16.753Z,61.40
2018-09-18T16:05:45.946Z,63.50
2018-09-18T16:08:15.129Z,62.90
2018-09-18T16:10:44.357Z,63.40
2018-09-18T16:13:13.546Z,61.50
2018-09-18T16:15:42.794Z,60.50
2018-09-18T16:18:11.979Z,56.00
2018-09-18T16:20:41.120Z,54.60
2018-09-18T16:23:10.296Z,54.50
2018-09-18T16:25:39.531Z,54.00
2018-09-18T16:28:08.825Z,53.90
2018-09-18T16:30:37.988Z,54.50
2018-09-18T16:33:07.173Z,54.60
2018-09-18T16:35:36.342Z,54.50
2018-09-18T16:38:05.534Z,55.00
2018-09-18T16:40:34.715Z,55.50
2018-09-18T16:43:03.891Z,55.40
2018-09-18T16:45:33.149Z,55.60
2018-09-18T16:48:02.427Z,55.80
2018-09-18T16:50:31.629Z,55.70
2018-09-18T16:53:00.813Z,56.30
2018-09-18T16:55:29.995Z,56.50
2018-09-18T16:58:05.910Z,56.80
2018-09-18T17:00:35.133Z,57.20
2018-09-18T17:03:04.455Z,57.40
2018-09-18T17:05:33.679Z,57.90
2018-09-18T17:08:02.888Z,58.40
2018-09-18T17:10:32.136Z,59.20
2018-09-18T17:13:01.272Z,59.40
2018-09-18T17:15:30.423Z,59.40
2018-09-18T17:17:59.567Z,58.90
2018-09-18T17:20:28.703Z,58.40
2018-09-18T17:22:57.886Z,58.50
2018-09-18T17:25:27.035Z,58.70
2018-09-18T17:27:56.184Z,58.20
2018-09-18T17:30:25.354Z,58.60
2018-09-18T17:32:54.520Z,58.30
2018-09-18T17:35:23.744Z,58.20
2018-09-18T17:37:52.929Z,58.50
2018-09-18T17:40:22.142Z,58.20
2018-09-18T17:42:51.343Z,58.40
2018-09-18T17:45:20.497Z,58.70
2018-09-18T17:47:49.672Z,58.90
2018-09-18T17:50:18.890Z,59.30
2018-09-18T17:52:47.982Z,59.10
2018-09-18T17:55:17.159Z,59.70
2018-09-18T17:57:46.304Z,60.00
2018-09-18T18:00:15.599Z,60.90
2018-09-18T18:02:44.774Z,62.50
2018-09-18T18:05:13.930Z,63.80
2018-09-18T18:07:43.298Z,64.60
2018-09-18T18:10:12.603Z,67.20
2018-09-18T18:12:41.813Z,67.10
2018-09-18T18:15:10.935Z,68.30
2018-09-18T18:17:40.111Z,69.40
2018-09-18T18:20:09.231Z,70.40
2018-09-18T18:22:38.408Z,70.10
2018-09-18T18:25:07.679Z,70.40
2018-09-18T18:27:36.892Z,70.80
2018-09-18T18:30:06.513Z,70.80
2018-09-18T18:32:35.812Z,71.30
2018-09-18T18:35:05.112Z,71.80
2018-09-18T18:37:34.261Z,72.10
2018-09-18T18:40:03.794Z,73.20
2018-09-18T18:42:33.003Z,73.30
2018-09-18T18:45:02.204Z,74.40
2018-09-18T18:47:31.569Z,74.30
2018-09-18T18:50:00.668Z,75.10
2018-09-18T18:52:29.833Z,74.50
2018-09-18T18:54:59.048Z,74.70
2018-09-18T18:57:28.230Z,75.20
2018-09-18T18:59:57.365Z,76.00
2018-09-18T19:02:26.623Z,76.40
2018-09-18T19:04:55.777Z,76.80
2018-09-18T19:07:24.931Z,76.50
2018-09-18T19:09:54.094Z,76.60
2018-09-18T19:12:23.287Z,77.50
2018-09-18T19:14:52.448Z,77.70
2018-09-18T19:17:21.588Z,78.00
2018-09-18T19:19:50.740Z,78.10
2018-09-18T19:22:19.949Z,78.60
2018-09-18T19:24:49.169Z,78.50
2018-09-18T19:27:18.346Z,78.70
2018-09-18T19:29:47.503Z,78.70
2018-09-18T19:32:16.706Z,78.40
2018-09-18T19:34:45.881Z,78.40
2018-09-18T19:37:15.077Z,77.80
2018-09-18T19:39:44.242Z,77.10
2018-09-18T19:42:13.563Z,78.20
2018-09-18T19:44:42.731Z,79.20
2018-09-18T19:47:11.898Z,79.80
2018-09-18T19:49:41.854Z,80.00
2018-09-18T19:52:11.859Z,79.80
2018-09-18T19:54:41.803Z,79.40
2018-09-18T19:57:10.974Z,77.50
2018-09-18T19:59:40.144Z,76.90
2018-09-18T20:02:09.329Z,76.70
2018-09-18T20:04:38.485Z,76.70
2018-09-18T20:07:07.669Z,75.50
2018-09-18T20:09:36.911Z,76.00
2018-09-18T20:12:06.281Z,75.60
2018-09-18T20:14:35.454Z,75.80
2018-09-18T20:17:04.625Z,76.20
2018-09-18T20:19:33.791Z,76.60
2018-09-18T20:22:02.961Z,77.60
2018-09-18T20:24:32.111Z,77.70
2018-09-18T20:27:01.281Z,78.00
2018-09-18T20:29:30.512Z,78.60
2018-09-18T20:31:59.629Z,79.00
2018-09-18T20:34:28.922Z,79.00
2018-09-18T20:36:58.068Z,78.60
2018-09-18T20:39:27.322Z,78.80
2018-09-18T20:41:57.392Z,78.80
2018-09-18T20:44:26.641Z,78.80
2018-09-18T20:46:56.328Z,79.10
2018-09-18T20:49:25.643Z,79.00
2018-09-18T20:51:54.813Z,79.00
2018-09-18T20:54:24.003Z,79.20
2018-09-18T20:56:53.212Z,79.00
2018-09-18T20:59:22.609Z,78.80
2018-09-18T21:01:51.811Z,79.30
2018-09-18T21:04:20.961Z,78.60
2018-09-18T21:06:50.136Z,78.90
2018-09-18T21:09:19.334Z,78.70
2018-09-18T21:11:48.533Z,78.80
2018-09-18T21:14:17.695Z,79.00
2018-09-18T21:16:46.957Z,78.60
2018-09-18T21:19:16.237Z,78.50
2018-09-18T21:21:45.554Z,77.80
2018-09-18T21:24:14.852Z,77.40
2018-09-18T21:26:44.047Z,76.10
2018-09-18T21:29:13.213Z,76.30
2018-09-18T21:31:42.470Z,75.90
2018-09-18T21:34:11.749Z,75.10
2018-09-18T21:36:40.925Z,75.10
2018-09-18T21:39:11.464Z,74.70
2018-09-18T21:41:40.788Z,74.60
2018-09-18T21:44:10.015Z,74.90
2018-09-18T21:46:39.323Z,74.90
2018-09-18T21:49:08.522Z,75.10
2018-09-18T21:51:39.000Z,75.00
2018-09-18T21:54:08.219Z,74.80
2018-09-18T21:56:37.442Z,74.80
2018-09-18T21:59:06.736Z,74.50
2018-09-18T22:01:35.901Z,74.60
2018-09-18T22:04:05.104Z,74.80
2018-09-18T22:06:34.288Z,74.80
2018-09-18T22:09:03.434Z,75.20
2018-09-18T22:11:32.630Z,75.00
2018-09-18T22:14:02.160Z,75.20
2018-09-18T22:16:31.361Z,75.10
2018-09-18T22:19:00.494Z,74.80
2018-09-18T22:21:29.654Z,74.60
2018-09-18T22:23:58.871Z,74.60
2018-09-18T22:26:28.029Z,73.60
2018-09-18T22:28:57.188Z,73.50
2018-09-18T22:31:26.680Z,73.20
2018-09-18T22:33:55.795Z,73.60
2018-09-18T22:36:24.938Z,73.50
2018-09-18T22:38:54.151Z,72.80
2018-09-18T22:41:23.286Z,72.60
2018-09-18T22:43:52.642Z,71.90
2018-09-18T22:46:21.793Z,72.10
2018-09-18T22:48:50.936Z,71.60
2018-09-18T22:51:20.088Z,71.80
2018-09-18T22:53:49.220Z,72.00
2018-09-18T22:56:18.374Z,70.60
2018-09-18T22:58:47.514Z,70.50
2018-09-18T23:01:16.736Z,70.20
2018-09-18T23:03:45.941Z,70.20
2018-09-18T23:06:15.400Z,70.00
2018-09-18T23:08:44.866Z,70.30
2018-09-18T23:11:14.080Z,70.20
2018-09-18T23:13:43.259Z,70.70
2018-09-18T23:16:12.407Z,71.40
2018-09-18T23:18:41.603Z,71.70
2018-09-18T23:21:10.747Z,72.60
2018-09-18T23:23:39.896Z,74.30
2018-09-18T23:26:09.045Z,73.20
2018-09-18T23:28:38.225Z,74.50
2018-09-18T23:31:07.366Z,73.80
2018-09-18T23:33:36.513Z,74.50
2018-09-18T23:36:05.692Z,75.10
2018-09-18T23:38:34.866Z,74.60
2018-09-18T23:41:04.023Z,75.50
2018-09-18T23:43:33.193Z,75.70
2018-09-18T23:46:02.355Z,75.10
2018-09-18T23:48:31.493Z,75.30
2018-09-18T23:51:00.637Z,76.20
2018-09-18T23:53:29.851Z,77.30
2018-09-18T23:55:59.024Z,76.40
2018-09-18T23:58:28.164Z,76.50
